sensor_id;sensor_type;location;lat;lon;timestamp;pressure;altitude;pressure_sealevel;temperature
15453;BMP280;7827;53.594;9.938;2022-09-27T00:01:53;151237.78;;;11.65
15453;BMP280;7827;53.594;9.938;2022-09-27T00:04:22;151234.00;;;11.63
15453;BMP280;7827;53.594;9.938;2022-09-27T00:06:50;151221.44;;;11.58
15453;BMP280;7827;53.594;9.938;2022-09-27T00:09:19;151218.94;;;11.57
15453;BMP280;7827;53.594;9.938;2022-09-27T00:11:47;151205.16;;;11.52
15453;BMP280;7827;53.594;9.938;2022-09-27T00:14:17;151221.44;;;11.58
15453;BMP280;7827;53.594;9.938;2022-09-27T00:16:47;151225.22;;;11.60
15453;BMP280;7827;53.594;9.938;2022-09-27T00:19:18;151245.28;;;11.68
15453;BMP280;7827;53.594;9.938;2022-09-27T00:21:48;151251.53;;;11.70
15453;BMP280;7827;53.594;9.938;2022-09-27T00:24:19;151239.00;;;11.65
15453;BMP280;7827;53.594;9.938;2022-09-27T00:26:49;151227.72;;;11.61
15453;BMP280;7827;53.594;9.938;2022-09-27T00:29:18;151236.50;;;11.64
15453;BMP280;7827;53.594;9.938;2022-09-27T00:31:48;151252.81;;;11.70
15453;BMP280;7827;53.594;9.938;2022-09-27T00:34:21;151251.53;;;11.70
15453;BMP280;7827;53.594;9.938;2022-09-27T00:36:51;151252.81;;;11.70
15453;BMP280;7827;53.594;9.938;2022-09-27T00:39:19;151255.28;;;11.71
15453;BMP280;7827;53.594;9.938;2022-09-27T00:41:48;151255.28;;;11.71
15453;BMP280;7827;53.594;9.938;2022-09-27T00:45:04;151252.81;;;11.70
15453;BMP280;7827;53.594;9.938;2022-09-27T00:47:42;151257.81;;;11.72
15453;BMP280;7827;53.594;9.938;2022-09-27T00:50:23;151252.81;;;11.70
15453;BMP280;7827;53.594;9.938;2022-09-27T00:53:03;151249.06;;;11.69
15453;BMP280;7827;53.594;9.938;2022-09-27T00:55:39;151251.53;;;11.70
15453;BMP280;7827;53.594;9.938;2022-09-27T00:58:12;151257.81;;;11.72
15453;BMP280;7827;53.594;9.938;2022-09-27T01:00:47;151261.56;;;11.74
15453;BMP280;7827;53.594;9.938;2022-09-27T01:03:27;151269.09;;;11.77
15453;BMP280;7827;53.594;9.938;2022-09-27T01:05:59;151260.34;;;11.73
15453;BMP280;7827;53.594;9.938;2022-09-27T01:08:28;151252.81;;;11.70
15453;BMP280;7827;53.594;9.938;2022-09-27T01:11:13;151247.78;;;11.68
15453;BMP280;7827;53.594;9.938;2022-09-27T01:14:02;151247.78;;;11.68
15453;BMP280;7827;53.594;9.938;2022-09-27T01:16:39;151255.28;;;11.71
15453;BMP280;7827;53.594;9.938;2022-09-27T01:19:30;151254.06;;;11.71
15453;BMP280;7827;53.594;9.938;2022-09-27T01:22:06;151250.28;;;11.69
15453;BMP280;7827;53.594;9.938;2022-09-27T01:25:06;151237.78;;;11.65
15453;BMP280;7827;53.594;9.938;2022-09-27T01:28:10;151242.78;;;11.67
15453;BMP280;7827;53.594;9.938;2022-09-27T01:30:47;151247.78;;;11.68
15453;BMP280;7827;53.594;9.938;2022-09-27T01:33:30;151234.00;;;11.63
15453;BMP280;7827;53.594;9.938;2022-09-27T01:36:24;151234.00;;;11.63
15453;BMP280;7827;53.594;9.938;2022-09-27T01:39:07;151227.72;;;11.61
15453;BMP280;7827;53.594;9.938;2022-09-27T01:42:05;151231.50;;;11.62
15453;BMP280;7827;53.594;9.938;2022-09-27T01:44:49;151228.97;;;11.61
15453;BMP280;7827;53.594;9.938;2022-09-27T01:47:34;151232.72;;;11.63
15453;BMP280;7827;53.594;9.938;2022-09-27T01:50:38;151220.22;;;11.58
15453;BMP280;7827;53.594;9.938;2022-09-27T01:53:12;151232.72;;;11.63
15453;BMP280;7827;53.594;9.938;2022-09-27T01:56:06;151234.00;;;11.63
15453;BMP280;7827;53.594;9.938;2022-09-27T01:59:04;151232.72;;;11.63
15453;BMP280;7827;53.594;9.938;2022-09-27T02:01:37;151237.78;;;11.65
15453;BMP280;7827;53.594;9.938;2022-09-27T02:04:12;151230.25;;;11.62
15453;BMP280;7827;53.594;9.938;2022-09-27T02:07:17;151240.25;;;11.66
15453;BMP280;7827;53.594;9.938;2022-09-27T02:09:54;151227.72;;;11.61
15453;BMP280;7827;53.594;9.938;2022-09-27T02:12:41;151232.72;;;11.63
15453;BMP280;7827;53.594;9.938;2022-09-27T02:15:14;151227.72;;;11.61
15453;BMP280;7827;53.594;9.938;2022-09-27T02:17:58;151228.97;;;11.61
15453;BMP280;7827;53.594;9.938;2022-09-27T02:20:34;151232.72;;;11.63
15453;BMP280;7827;53.594;9.938;2022-09-27T02:23:16;151254.06;;;11.71
15453;BMP280;7827;53.594;9.938;2022-09-27T02:25:55;151259.06;;;11.73
15453;BMP280;7827;53.594;9.938;2022-09-27T02:28:29;151255.28;;;11.71
15453;BMP280;7827;53.594;9.938;2022-09-27T02:30:58;151242.78;;;11.67
15453;BMP280;7827;53.594;9.938;2022-09-27T02:33:39;151246.53;;;11.68
15453;BMP280;7827;53.594;9.938;2022-09-27T02:36:10;151250.28;;;11.69
15453;BMP280;7827;53.594;9.938;2022-09-27T02:38:40;151255.28;;;11.71
15453;BMP280;7827;53.594;9.938;2022-09-27T02:41:13;151256.59;;;11.72
15453;BMP280;7827;53.594;9.938;2022-09-27T02:43:46;151255.28;;;11.71
15453;BMP280;7827;53.594;9.938;2022-09-27T02:46:46;151242.78;;;11.67
15453;BMP280;7827;53.594;9.938;2022-09-27T02:49:42;151241.53;;;11.66
15453;BMP280;7827;53.594;9.938;2022-09-27T02:52:49;151250.28;;;11.69
15453;BMP280;7827;53.594;9.938;2022-09-27T02:55:29;151251.53;;;11.70
15453;BMP280;7827;53.594;9.938;2022-09-27T02:58:27;151255.28;;;11.71
15453;BMP280;7827;53.594;9.938;2022-09-27T03:01:27;151261.56;;;11.74
15453;BMP280;7827;53.594;9.938;2022-09-27T03:04:27;151264.09;;;11.75
15453;BMP280;7827;53.594;9.938;2022-09-27T03:07:00;151264.09;;;11.75
15453;BMP280;7827;53.594;9.938;2022-09-27T03:12:13;151271.63;;;11.78
15453;BMP280;7827;53.594;9.938;2022-09-27T03:14:46;151272.84;;;11.78
15453;BMP280;7827;53.594;9.938;2022-09-27T03:17:35;151271.63;;;11.78
15453;BMP280;7827;53.594;9.938;2022-09-27T03:20:22;151269.09;;;11.77
15453;BMP280;7827;53.594;9.938;2022-09-27T03:22:58;151267.88;;;11.76
15453;BMP280;7827;53.594;9.938;2022-09-27T03:25:26;151262.81;;;11.74
15453;BMP280;7827;53.594;9.938;2022-09-27T03:27:56;151250.28;;;11.69
15453;BMP280;7827;53.594;9.938;2022-09-27T03:30:25;151251.53;;;11.70
15453;BMP280;7827;53.594;9.938;2022-09-27T03:32:53;151252.81;;;11.70
15453;BMP280;7827;53.594;9.938;2022-09-27T03:35:41;151257.81;;;11.72
15453;BMP280;7827;53.594;9.938;2022-09-27T03:38:10;151247.78;;;11.68
15453;BMP280;7827;53.594;9.938;2022-09-27T03:40:39;151245.28;;;11.68
15453;BMP280;7827;53.594;9.938;2022-09-27T03:43:10;151247.78;;;11.68
15453;BMP280;7827;53.594;9.938;2022-09-27T03:45:38;151245.28;;;11.68
15453;BMP280;7827;53.594;9.938;2022-09-27T03:48:10;151242.78;;;11.67
15453;BMP280;7827;53.594;9.938;2022-09-27T03:50:38;151250.28;;;11.69
15453;BMP280;7827;53.594;9.938;2022-09-27T03:53:07;151245.28;;;11.68
15453;BMP280;7827;53.594;9.938;2022-09-27T03:55:36;151237.78;;;11.65
15453;BMP280;7827;53.594;9.938;2022-09-27T03:58:04;151237.78;;;11.65
15453;BMP280;7827;53.594;9.938;2022-09-27T04:00:34;151240.25;;;11.66
15453;BMP280;7827;53.594;9.938;2022-09-27T04:03:03;151241.53;;;11.66
15453;BMP280;7827;53.594;9.938;2022-09-27T04:05:52;151232.72;;;11.63
15453;BMP280;7827;53.594;9.938;2022-09-27T04:08:28;151235.25;;;11.64
15453;BMP280;7827;53.594;9.938;2022-09-27T04:10:57;151235.25;;;11.64
15453;BMP280;7827;53.594;9.938;2022-09-27T04:13:26;151241.53;;;11.66
15453;BMP280;7827;53.594;9.938;2022-09-27T04:15:57;151240.25;;;11.66
15453;BMP280;7827;53.594;9.938;2022-09-27T04:18:45;151235.25;;;11.64
15453;BMP280;7827;53.594;9.938;2022-09-27T04:21:34;151245.28;;;11.68
15453;BMP280;7827;53.594;9.938;2022-09-27T04:24:04;151250.28;;;11.69
15453;BMP280;7827;53.594;9.938;2022-09-27T04:26:33;151250.28;;;11.69
15453;BMP280;7827;53.594;9.938;2022-09-27T04:29:13;151249.06;;;11.69
15453;BMP280;7827;53.594;9.938;2022-09-27T04:31:49;151247.78;;;11.68
15453;BMP280;7827;53.594;9.938;2022-09-27T04:34:20;151245.28;;;11.68
15453;BMP280;7827;53.594;9.938;2022-09-27T04:37:14;151245.28;;;11.68
15453;BMP280;7827;53.594;9.938;2022-09-27T04:39:48;151252.81;;;11.70
15453;BMP280;7827;53.594;9.938;2022-09-27T04:42:17;151255.28;;;11.71
15453;BMP280;7827;53.594;9.938;2022-09-27T04:44:45;151260.34;;;11.73
15453;BMP280;7827;53.594;9.938;2022-09-27T04:47:15;151261.56;;;11.74
15453;BMP280;7827;53.594;9.938;2022-09-27T04:49:44;151257.81;;;11.72
15453;BMP280;7827;53.594;9.938;2022-09-27T04:52:13;151262.81;;;11.74
15453;BMP280;7827;53.594;9.938;2022-09-27T04:54:41;151255.28;;;11.71
15453;BMP280;7827;53.594;9.938;2022-09-27T04:57:11;151257.81;;;11.72
15453;BMP280;7827;53.594;9.938;2022-09-27T04:59:41;151252.81;;;11.70
15453;BMP280;7827;53.594;9.938;2022-09-27T05:02:11;151240.25;;;11.66
15453;BMP280;7827;53.594;9.938;2022-09-27T05:05:10;151241.53;;;11.66
15453;BMP280;7827;53.594;9.938;2022-09-27T05:07:41;151256.59;;;11.72
15453;BMP280;7827;53.594;9.938;2022-09-27T05:10:15;151269.09;;;11.77
15453;BMP280;7827;53.594;9.938;2022-09-27T05:12:43;151277.84;;;11.80
15453;BMP280;7827;53.594;9.938;2022-09-27T05:15:14;151280.38;;;11.81
15453;BMP280;7827;53.594;9.938;2022-09-27T05:17:52;151282.91;;;11.82
15453;BMP280;7827;53.594;9.938;2022-09-27T05:21:00;151272.84;;;11.78
15453;BMP280;7827;53.594;9.938;2022-09-27T05:23:35;151277.84;;;11.80
15453;BMP280;7827;53.594;9.938;2022-09-27T05:26:04;151274.09;;;11.79
15453;BMP280;7827;53.594;9.938;2022-09-27T05:28:33;151284.16;;;11.83
15453;BMP280;7827;53.594;9.938;2022-09-27T05:31:02;151291.66;;;11.86
15453;BMP280;7827;53.594;9.938;2022-09-27T05:33:30;151285.38;;;11.83
15453;BMP280;7827;53.594;9.938;2022-09-27T05:36:36;151292.91;;;11.86
15453;BMP280;7827;53.594;9.938;2022-09-27T05:39:05;151307.94;;;11.92
15453;BMP280;7827;53.594;9.938;2022-09-27T05:41:34;151315.53;;;11.95
15453;BMP280;7827;53.594;9.938;2022-09-27T05:44:03;151306.72;;;11.92
15453;BMP280;7827;53.594;9.938;2022-09-27T05:46:32;151311.72;;;11.94
15453;BMP280;7827;53.594;9.938;2022-09-27T05:49:01;151314.22;;;11.95
15453;BMP280;7827;53.594;9.938;2022-09-27T05:51:29;151313.00;;;11.94
15453;BMP280;7827;53.594;9.938;2022-09-27T05:53:59;151307.94;;;11.92
15453;BMP280;7827;53.594;9.938;2022-09-27T05:56:28;151310.47;;;11.93
15453;BMP280;7827;53.594;9.938;2022-09-27T05:59:15;151318.00;;;11.96
15453;BMP280;7827;53.594;9.938;2022-09-27T06:02:01;151325.53;;;11.99
15453;BMP280;7827;53.594;9.938;2022-09-27T06:04:53;151326.81;;;12.00
15453;BMP280;7827;53.594;9.938;2022-09-27T06:07:41;151325.53;;;11.99
15453;BMP280;7827;53.594;9.938;2022-09-27T06:10:18;151328.03;;;12.00
15453;BMP280;7827;53.594;9.938;2022-09-27T06:12:47;151323.03;;;11.98
15453;BMP280;7827;53.594;9.938;2022-09-27T06:15:36;151329.28;;;12.01
15453;BMP280;7827;53.594;9.938;2022-09-27T06:18:08;151338.09;;;12.04
15453;BMP280;7827;53.594;9.938;2022-09-27T06:20:39;151353.13;;;12.10
15453;BMP280;7827;53.594;9.938;2022-09-27T06:23:11;151355.63;;;12.11
15453;BMP280;7827;53.594;9.938;2022-09-27T06:25:41;151348.09;;;12.08
15453;BMP280;7827;53.594;9.938;2022-09-27T06:28:22;151365.66;;;12.15
15453;BMP280;7827;53.594;9.938;2022-09-27T06:30:54;151350.63;;;12.09
15453;BMP280;7827;53.594;9.938;2022-09-27T06:33:38;151354.38;;;12.11
15453;BMP280;7827;53.594;9.938;2022-09-27T06:36:07;151350.63;;;12.09
15453;BMP280;7827;53.594;9.938;2022-09-27T06:38:38;151364.44;;;12.15
15453;BMP280;7827;53.594;9.938;2022-09-27T06:41:12;151343.09;;;12.06
15453;BMP280;7827;53.594;9.938;2022-09-27T06:44:07;151348.09;;;12.08
15453;BMP280;7827;53.594;9.938;2022-09-27T06:47:10;151360.66;;;12.13
15453;BMP280;7827;53.594;9.938;2022-09-27T06:49:57;151348.09;;;12.08
15453;BMP280;7827;53.594;9.938;2022-09-27T06:52:26;151346.84;;;12.08
15453;BMP280;7827;53.594;9.938;2022-09-27T06:54:54;151318.00;;;11.96
15453;BMP280;7827;53.594;9.938;2022-09-27T06:57:24;151319.28;;;11.97
15453;BMP280;7827;53.594;9.938;2022-09-27T07:00:09;151292.91;;;11.86
15453;BMP280;7827;53.594;9.938;2022-09-27T07:03:13;151295.44;;;11.87
15453;BMP280;7827;53.594;9.938;2022-09-27T07:06:03;151325.53;;;11.99
15453;BMP280;7827;53.594;9.938;2022-09-27T07:08:42;151338.09;;;12.04
15453;BMP280;7827;53.594;9.938;2022-09-27T07:11:10;151330.56;;;12.01
15453;BMP280;7827;53.594;9.938;2022-09-27T07:13:40;151335.56;;;12.03
15453;BMP280;7827;53.594;9.938;2022-09-27T07:16:10;151305.47;;;11.91
15453;BMP280;7827;53.594;9.938;2022-09-27T07:18:41;151287.91;;;11.84
15453;BMP280;7827;53.594;9.938;2022-09-27T07:21:10;151279.16;;;11.81
15453;BMP280;7827;53.594;9.938;2022-09-27T07:23:38;151277.84;;;11.80
15453;BMP280;7827;53.594;9.938;2022-09-27T07:26:09;151287.91;;;11.84
15453;BMP280;7827;53.594;9.938;2022-09-27T07:28:39;151275.38;;;11.79
15453;BMP280;7827;53.594;9.938;2022-09-27T07:31:12;151280.38;;;11.81
15453;BMP280;7827;53.594;9.938;2022-09-27T07:33:40;151302.94;;;11.90
15453;BMP280;7827;53.594;9.938;2022-09-27T07:36:12;151306.72;;;11.92
15453;BMP280;7827;53.594;9.938;2022-09-27T07:38:42;151319.28;;;11.97
15453;BMP280;7827;53.594;9.938;2022-09-27T07:41:12;151335.56;;;12.03
15453;BMP280;7827;53.594;9.938;2022-09-27T07:43:44;151348.09;;;12.08
15453;BMP280;7827;53.594;9.938;2022-09-27T07:46:13;151368.19;;;12.16
15453;BMP280;7827;53.594;9.938;2022-09-27T07:48:50;151379.47;;;12.20
15453;BMP280;7827;53.594;9.938;2022-09-27T07:51:37;151385.72;;;12.23
15453;BMP280;7827;53.594;9.938;2022-09-27T07:54:26;151393.25;;;12.26
15453;BMP280;7827;53.594;9.938;2022-09-27T07:57:33;151398.28;;;12.28
15453;BMP280;7827;53.594;9.938;2022-09-27T08:00:07;151387.00;;;12.23
15453;BMP280;7827;53.594;9.938;2022-09-27T08:02:39;151394.53;;;12.26
15453;BMP280;7827;53.594;9.938;2022-09-27T08:05:09;151397.00;;;12.27
15453;BMP280;7827;53.594;9.938;2022-09-27T08:07:39;151383.25;;;12.22
15453;BMP280;7827;53.594;9.938;2022-09-27T08:10:08;151389.47;;;12.24
15453;BMP280;7827;53.594;9.938;2022-09-27T08:12:37;151407.03;;;12.31
15453;BMP280;7827;53.594;9.938;2022-09-27T08:15:08;151422.09;;;12.37
15453;BMP280;7827;53.594;9.938;2022-09-27T08:17:37;151430.91;;;12.41
15453;BMP280;7827;53.594;9.938;2022-09-27T08:20:16;151420.84;;;12.37
15453;BMP280;7827;53.594;9.938;2022-09-27T08:23:05;151427.16;;;12.39
15453;BMP280;7827;53.594;9.938;2022-09-27T08:25:40;151425.84;;;12.39
15453;BMP280;7827;53.594;9.938;2022-09-27T08:28:30;151394.53;;;12.26
15453;BMP280;7827;53.594;9.938;2022-09-27T08:31:16;151385.72;;;12.23
15453;BMP280;7827;53.594;9.938;2022-09-27T08:33:48;151378.19;;;12.20
15453;BMP280;7827;53.594;9.938;2022-09-27T08:36:17;151368.19;;;12.16
15453;BMP280;7827;53.594;9.938;2022-09-27T08:38:48;151361.91;;;12.14
15453;BMP280;7827;53.594;9.938;2022-09-27T08:41:32;151360.66;;;12.13
15453;BMP280;7827;53.594;9.938;2022-09-27T08:44:12;151348.09;;;12.08
15453;BMP280;7827;53.594;9.938;2022-09-27T08:47:07;151331.81;;;12.02
15453;BMP280;7827;53.594;9.938;2022-09-27T08:49:44;151310.47;;;11.93
15453;BMP280;7827;53.594;9.938;2022-09-27T08:52:20;151309.22;;;11.93
15453;BMP280;7827;53.594;9.938;2022-09-27T08:54:51;151309.22;;;11.93
15453;BMP280;7827;53.594;9.938;2022-09-27T08:57:23;151282.91;;;11.82
15453;BMP280;7827;53.594;9.938;2022-09-27T09:00:02;151264.09;;;11.75
15453;BMP280;7827;53.594;9.938;2022-09-27T09:02:35;151269.09;;;11.77
15453;BMP280;7827;53.594;9.938;2022-09-27T09:05:09;151280.38;;;11.81
15453;BMP280;7827;53.594;9.938;2022-09-27T09:10:52;151250.28;;;11.69
15453;BMP280;7827;53.594;9.938;2022-09-27T09:17:10;151239.00;;;11.65
15453;BMP280;7827;53.594;9.938;2022-09-27T09:20:18;151201.41;;;11.50
15453;BMP280;7827;53.594;9.938;2022-09-27T09:23:20;151186.31;;;11.44
15453;BMP280;7827;53.594;9.938;2022-09-27T09:26:01;151162.47;;;11.35
15453;BMP280;7827;53.594;9.938;2022-09-27T09:28:48;151175.03;;;11.40
15453;BMP280;7827;53.594;9.938;2022-09-27T09:31:31;151193.88;;;11.47
15453;BMP280;7827;53.594;9.938;2022-09-27T09:34:09;151197.66;;;11.49
15453;BMP280;7827;53.594;9.938;2022-09-27T09:36:49;151213.94;;;11.55
15453;BMP280;7827;53.594;9.938;2022-09-27T09:39:23;151200.13;;;11.50
15453;BMP280;7827;53.594;9.938;2022-09-27T09:42:05;151193.88;;;11.47
15453;BMP280;7827;53.594;9.938;2022-09-27T09:44:47;151197.66;;;11.49
15453;BMP280;7827;53.594;9.938;2022-09-27T09:47:28;151210.16;;;11.54
15453;BMP280;7827;53.594;9.938;2022-09-27T09:50:04;151222.72;;;11.59
15453;BMP280;7827;53.594;9.938;2022-09-27T09:52:42;151234.00;;;11.63
15453;BMP280;7827;53.594;9.938;2022-09-27T09:55:18;151241.53;;;11.66
15453;BMP280;7827;53.594;9.938;2022-09-27T09:58:01;151260.34;;;11.73
15453;BMP280;7827;53.594;9.938;2022-09-27T10:00:41;151285.38;;;11.83
15453;BMP280;7827;53.594;9.938;2022-09-27T10:03:10;151276.63;;;11.80
15453;BMP280;7827;53.594;9.938;2022-09-27T10:05:43;151260.34;;;11.73
15453;BMP280;7827;53.594;9.938;2022-09-27T10:08:19;151272.84;;;11.78
15453;BMP280;7827;53.594;9.938;2022-09-27T10:10:57;151290.44;;;11.85
15453;BMP280;7827;53.594;9.938;2022-09-27T10:13:55;151292.91;;;11.86
15453;BMP280;7827;53.594;9.938;2022-09-27T10:16:25;151295.44;;;11.87
15453;BMP280;7827;53.594;9.938;2022-09-27T10:19:00;151316.75;;;11.96
15453;BMP280;7827;53.594;9.938;2022-09-27T10:21:32;151300.44;;;11.89
15453;BMP280;7827;53.594;9.938;2022-09-27T10:24:10;151284.16;;;11.83
15453;BMP280;7827;53.594;9.938;2022-09-27T10:26:59;151297.94;;;11.88
15453;BMP280;7827;53.594;9.938;2022-09-27T10:29:32;151313.00;;;11.94
15453;BMP280;7827;53.594;9.938;2022-09-27T10:32:23;151307.94;;;11.92
15453;BMP280;7827;53.594;9.938;2022-09-27T10:35:35;151320.53;;;11.97
15453;BMP280;7827;53.594;9.938;2022-09-27T10:38:22;151334.34;;;12.03
15453;BMP280;7827;53.594;9.938;2022-09-27T10:41:16;151363.13;;;12.14
15453;BMP280;7827;53.594;9.938;2022-09-27T10:43:49;151403.28;;;12.30
15453;BMP280;7827;53.594;9.938;2022-09-27T10:46:30;151425.84;;;12.39
15453;BMP280;7827;53.594;9.938;2022-09-27T10:49:26;151430.91;;;12.41
15453;BMP280;7827;53.594;9.938;2022-09-27T10:52:01;151417.09;;;12.35
15453;BMP280;7827;53.594;9.938;2022-09-27T10:54:35;151398.28;;;12.28
15453;BMP280;7827;53.594;9.938;2022-09-27T10:57:17;151407.03;;;12.31
15453;BMP280;7827;53.594;9.938;2022-09-27T10:59:53;151430.91;;;12.41
15453;BMP280;7827;53.594;9.938;2022-09-27T11:02:27;151392.00;;;12.25
15453;BMP280;7827;53.594;9.938;2022-09-27T11:05:33;151355.63;;;12.11
15453;BMP280;7827;53.594;9.938;2022-09-27T11:08:22;151355.63;;;12.11
15453;BMP280;7827;53.594;9.938;2022-09-27T11:11:06;151387.00;;;12.23
15453;BMP280;7827;53.594;9.938;2022-09-27T11:13:38;151390.75;;;12.25
15453;BMP280;7827;53.594;9.938;2022-09-27T11:16:29;151400.75;;;12.29
15453;BMP280;7827;53.594;9.938;2022-09-27T11:19:14;151356.91;;;12.12
15453;BMP280;7827;53.594;9.938;2022-09-27T11:21:55;151379.47;;;12.20
15453;BMP280;7827;53.594;9.938;2022-09-27T11:24:56;151385.72;;;12.23
15453;BMP280;7827;53.594;9.938;2022-09-27T11:27:45;151385.72;;;12.23
15453;BMP280;7827;53.594;9.938;2022-09-27T11:30:29;151360.66;;;12.13
15453;BMP280;7827;53.594;9.938;2022-09-27T11:33:47;151355.63;;;12.11
15453;BMP280;7827;53.594;9.938;2022-09-27T11:36:35;151390.75;;;12.25
15453;BMP280;7827;53.594;9.938;2022-09-27T11:39:19;151393.25;;;12.26
15453;BMP280;7827;53.594;9.938;2022-09-27T11:42:16;151410.81;;;12.33
15453;BMP280;7827;53.594;9.938;2022-09-27T11:45:01;151409.56;;;12.32
15453;BMP280;7827;53.594;9.938;2022-09-27T11:48:16;151414.56;;;12.34
15453;BMP280;7827;53.594;9.938;2022-09-27T11:51:03;151428.38;;;12.40
15453;BMP280;7827;53.594;9.938;2022-09-27T11:53:57;151437.16;;;12.43
15453;BMP280;7827;53.594;9.938;2022-09-27T11:56:41;151462.25;;;12.53
15453;BMP280;7827;53.594;9.938;2022-09-27T11:59:58;151496.13;;;12.66
15453;BMP280;7827;53.594;9.938;2022-09-27T12:06:05;151501.16;;;12.68
15453;BMP280;7827;53.594;9.938;2022-09-27T12:08:55;151488.59;;;12.63
15453;BMP280;7827;53.594;9.938;2022-09-27T12:11:30;151508.69;;;12.71
15453;BMP280;7827;53.594;9.938;2022-09-27T12:14:10;151514.94;;;12.74
15453;BMP280;7827;53.594;9.938;2022-09-27T12:16:42;151501.16;;;12.68
15453;BMP280;7827;53.594;9.938;2022-09-27T12:19:19;151487.34;;;12.63
15453;BMP280;7827;53.594;9.938;2022-09-27T12:22:03;151486.06;;;12.63
15453;BMP280;7827;53.594;9.938;2022-09-27T12:24:37;151476.06;;;12.59
15453;BMP280;7827;53.594;9.938;2022-09-27T12:27:37;151497.41;;;12.67
15453;BMP280;7827;53.594;9.938;2022-09-27T12:30:13;151516.22;;;12.74
15453;BMP280;7827;53.594;9.938;2022-09-27T12:32:56;151528.75;;;12.79
15453;BMP280;7827;53.594;9.938;2022-09-27T12:35:35;151563.91;;;12.93
15453;BMP280;7827;53.594;9.938;2022-09-27T12:38:14;151580.28;;;13.00
15453;BMP280;7827;53.594;9.938;2022-09-27T12:40:47;151540.09;;;12.84
15453;BMP280;7827;53.594;9.938;2022-09-27T12:43:21;151541.34;;;12.84
15453;BMP280;7827;53.594;9.938;2022-09-27T12:46:09;151528.75;;;12.79
15453;BMP280;7827;53.594;9.938;2022-09-27T12:48:47;151548.88;;;12.87
15453;BMP280;7827;53.594;9.938;2022-09-27T12:51:22;151576.50;;;12.98
15453;BMP280;7827;53.594;9.938;2022-09-27T12:54:26;151572.75;;;12.97
15453;BMP280;7827;53.594;9.938;2022-09-27T12:57:07;151532.53;;;12.81
15453;BMP280;7827;53.594;9.938;2022-09-27T12:59:57;151521.22;;;12.76
15453;BMP280;7827;53.594;9.938;2022-09-27T13:06:36;151523.75;;;12.77
15453;BMP280;7827;53.594;9.938;2022-09-27T13:09:52;151491.13;;;12.64
15453;BMP280;7827;53.594;9.938;2022-09-27T13:12:26;151506.16;;;12.70
15453;BMP280;7827;53.594;9.938;2022-09-27T13:15:03;151523.75;;;12.77
15453;BMP280;7827;53.594;9.938;2022-09-27T13:17:51;151498.66;;;12.67
15453;BMP280;7827;53.594;9.938;2022-09-27T13:20:39;151478.53;;;12.60
15453;BMP280;7827;53.594;9.938;2022-09-27T13:23:50;151481.06;;;12.61
15453;BMP280;7827;53.594;9.938;2022-09-27T13:26:46;151462.25;;;12.53
15453;BMP280;7827;53.594;9.938;2022-09-27T13:29:30;151481.06;;;12.61
15453;BMP280;7827;53.594;9.938;2022-09-27T13:32:21;151502.41;;;12.69
15453;BMP280;7827;53.594;9.938;2022-09-27T13:35:16;151520.00;;;12.76
15453;BMP280;7827;53.594;9.938;2022-09-27T13:37:53;151536.28;;;12.82
15453;BMP280;7827;53.594;9.938;2022-09-27T13:40:33;151540.09;;;12.84
15453;BMP280;7827;53.594;9.938;2022-09-27T13:43:37;151572.75;;;12.97
15453;BMP280;7827;53.594;9.938;2022-09-27T13:46:24;151571.44;;;12.96
15453;BMP280;7827;53.594;9.938;2022-09-27T13:48:58;151573.97;;;12.97
15453;BMP280;7827;53.594;9.938;2022-09-27T13:51:49;151580.28;;;13.00
15453;BMP280;7827;53.594;9.938;2022-09-27T13:54:39;151541.34;;;12.84
15453;BMP280;7827;53.594;9.938;2022-09-27T13:57:47;151553.91;;;12.89
15453;BMP280;7827;53.594;9.938;2022-09-27T14:00:23;151568.97;;;12.95
15453;BMP280;7827;53.594;9.938;2022-09-27T14:03:00;151551.38;;;12.88
15453;BMP280;7827;53.594;9.938;2022-09-27T14:05:54;151546.38;;;12.86
15453;BMP280;7827;53.594;9.938;2022-09-27T14:08:29;151541.34;;;12.84
15453;BMP280;7827;53.594;9.938;2022-09-27T14:11:02;151522.47;;;12.77
15453;BMP280;7827;53.594;9.938;2022-09-27T14:13:33;151535.03;;;12.82
15453;BMP280;7827;53.594;9.938;2022-09-27T14:16:07;151558.91;;;12.91
15453;BMP280;7827;53.594;9.938;2022-09-27T14:18:45;151572.75;;;12.97
15453;BMP280;7827;53.594;9.938;2022-09-27T14:21:29;151556.38;;;12.90
15453;BMP280;7827;53.594;9.938;2022-09-27T14:24:43;151527.53;;;12.79
15453;BMP280;7827;53.594;9.938;2022-09-27T14:27:20;151503.66;;;12.69
15453;BMP280;7827;53.594;9.938;2022-09-27T14:29:58;151483.59;;;12.62
15453;BMP280;7827;53.594;9.938;2022-09-27T14:32:33;151478.53;;;12.60
15453;BMP280;7827;53.594;9.938;2022-09-27T14:35:14;151481.06;;;12.61
15453;BMP280;7827;53.594;9.938;2022-09-27T14:38:03;151473.53;;;12.58
15453;BMP280;7827;53.594;9.938;2022-09-27T14:41:02;151498.66;;;12.67
15453;BMP280;7827;53.594;9.938;2022-09-27T14:43:30;151514.94;;;12.74
15453;BMP280;7827;53.594;9.938;2022-09-27T14:46:03;151503.66;;;12.69
15453;BMP280;7827;53.594;9.938;2022-09-27T14:48:35;151504.94;;;12.70
15453;BMP280;7827;53.594;9.938;2022-09-27T14:51:18;151525.00;;;12.78
15453;BMP280;7827;53.594;9.938;2022-09-27T14:53:49;151516.22;;;12.74
15453;BMP280;7827;53.594;9.938;2022-09-27T14:56:25;151528.75;;;12.79
15453;BMP280;7827;53.594;9.938;2022-09-27T14:59:01;151523.75;;;12.77
15453;BMP280;7827;53.594;9.938;2022-09-27T15:01:32;151528.75;;;12.79
15453;BMP280;7827;53.594;9.938;2022-09-27T15:04:06;151545.09;;;12.86
15453;BMP280;7827;53.594;9.938;2022-09-27T15:06:37;151536.28;;;12.82
15453;BMP280;7827;53.594;9.938;2022-09-27T15:09:06;151535.03;;;12.82
15453;BMP280;7827;53.594;9.938;2022-09-27T15:11:40;151536.28;;;12.82
15453;BMP280;7827;53.594;9.938;2022-09-27T15:14:14;151541.34;;;12.84
15453;BMP280;7827;53.594;9.938;2022-09-27T15:16:48;151531.28;;;12.80
15453;BMP280;7827;53.594;9.938;2022-09-27T15:19:23;151541.34;;;12.84
15453;BMP280;7827;53.594;9.938;2022-09-27T15:21:53;151535.03;;;12.82
15453;BMP280;7827;53.594;9.938;2022-09-27T15:24:37;151541.34;;;12.84
15453;BMP280;7827;53.594;9.938;2022-09-27T15:27:14;151530.00;;;12.80
15453;BMP280;7827;53.594;9.938;2022-09-27T15:29:48;151516.22;;;12.74
15453;BMP280;7827;53.594;9.938;2022-09-27T15:32:21;151488.59;;;12.63
15453;BMP280;7827;53.594;9.938;2022-09-27T15:34:50;151487.34;;;12.63
15453;BMP280;7827;53.594;9.938;2022-09-27T15:37:32;151496.13;;;12.66